Time;durP1;ratioP1;P1;durP2;ratioP2;P2;SDS_P1;SDS_P2;PMS_P1;PMS_P2;Temp;Humidity;BMP_temperature;BMP_pressure;BME280_temperature;BME280_humidity;BME280_pressure;Samples;Min_cycle;Max_cycle;Signal;HPM_P1;HPM_P2
2023/01/18 00:00:15;;;;;;;3.20;2.13;;;;;;;0.07;83.55;98289.31;5034419;28;20264;-75
2023/01/18 00:02:45;;;;;;;4.33;2.90;;;;;;;0.03;84.31;98279.97;5034459;28;20206;-75
2023/01/18 00:05:12;;;;;;;2.37;2.17;;;;;;;0.04;84.33;98280.81;5034263;28;20664;-75
2023/01/18 00:07:40;;;;;;;4.33;2.10;;;;;;;0.05;84.38;98273.09;5041078;28;20280;-75
2023/01/18 00:10:07;;;;;;;2.40;2.07;;;;;;;0.08;83.97;98278.22;5046256;28;20206;-75
2023/01/18 00:12:33;;;;;;;1.97;1.87;;;;;;;0.11;83.46;98275.59;5053109;28;20225;-74
2023/01/18 00:15:00;;;;;;;4.47;2.60;;;;;;;0.08;83.58;98279.91;5052957;28;20228;-75
2023/01/18 00:17:26;;;;;;;2.67;2.20;;;;;;;0.13;82.45;98293.53;5052964;28;20675;-75
2023/01/18 00:19:52;;;;;;;3.10;2.77;;;;;;;0.12;82.36;98318.34;5049025;28;20260;-75
2023/01/18 00:22:19;;;;;;;4.57;3.00;;;;;;;0.14;81.78;98328.56;5042538;28;20203;-75
2023/01/18 00:24:46;;;;;;;4.10;2.67;;;;;;;0.09;81.74;98340.63;5034560;28;20211;-75
2023/01/18 00:27:13;;;;;;;3.10;2.80;;;;;;;0.08;82.50;98333.78;5034207;28;20238;-74
2023/01/18 00:29:39;;;;;;;4.57;2.50;;;;;;;0.02;82.93;98332.16;5033150;28;20255;-75
2023/01/18 00:32:06;;;;;;;4.57;2.53;;;;;;;-0.10;83.22;98325.44;5033225;28;20206;-75
2023/01/18 00:34:32;;;;;;;3.60;2.13;;;;;;;-0.21;83.51;98309.28;5033252;28;20229;-74
2023/01/18 00:36:59;;;;;;;3.37;2.30;;;;;;;-0.25;84.16;98299.94;5032879;28;20206;-75
2023/01/18 00:39:25;;;;;;;2.93;2.23;;;;;;;-0.24;84.19;98283.69;5032922;28;20284;-75
2023/01/18 00:44:37;;;;;;;4.83;1.93;;;;;;;-0.21;84.33;98275.97;5032908;28;20579;-75
2023/01/18 00:47:03;;;;;;;3.33;2.27;;;;;;;-0.18;83.69;98270.78;5032770;28;20213;-75
2023/01/18 00:49:29;;;;;;;2.77;2.23;;;;;;;-0.13;82.89;98289.56;5032799;28;20235;-75
2023/01/18 00:51:56;;;;;;;5.90;2.60;;;;;;;-0.15;81.70;98326.34;5040388;28;20206;-75
2023/01/18 00:54:23;;;;;;;5.77;2.60;;;;;;;-0.19;81.90;98338.34;5042603;28;20694;-75
2023/01/18 00:56:49;;;;;;;4.97;2.03;;;;;;;-0.24;81.98;98330.69;5043531;28;20206;-75
2023/01/18 00:59:17;;;;;;;3.20;2.20;;;;;;;-0.26;83.02;98329.84;5052516;28;20714;-75
2023/01/18 01:01:44;;;;;;;4.00;2.67;;;;;;;-0.39;83.37;98327.44;5052064;28;20235;-75
2023/01/18 01:06:54;;;;;;;5.43;4.80;;;;;;;-1.14;85.52;98277.63;5052263;28;20347;-75
2023/01/18 01:09:23;;;;;;;5.23;4.63;;;;;;;-1.20;86.52;98232.44;5052396;28;20290;-75
2023/01/18 01:28:20;;;;;;;5.43;4.50;;;;;;;-1.57;90.99;98047.69;5051862;28;20617;-74
2023/01/18 01:30:48;;;;;;;5.90;4.63;;;;;;;-1.71;91.43;98046.09;5051819;28;20206;-74
2023/01/18 01:33:16;;;;;;;8.70;5.40;;;;;;;-1.55;91.83;98026.31;5051861;28;20221;-74
2023/01/18 01:35:43;;;;;;;9.33;5.40;;;;;;;-1.43;91.39;98027.91;5052050;28;20205;-74
2023/01/18 01:38:09;;;;;;;5.47;4.90;;;;;;;-1.30;90.89;98038.91;5051682;28;20221;-74
2023/01/18 01:40:36;;;;;;;7.67;4.90;;;;;;;-1.17;90.22;98053.25;5051463;28;20213;-73
2023/01/18 01:43:02;;;;;;;6.00;5.40;;;;;;;-1.09;89.56;98071.09;5045889;28;20619;-74
2023/01/18 01:45:31;;;;;;;5.60;5.10;;;;;;;-1.03;89.17;98082.13;5043597;28;20201;-74
2023/01/18 01:47:59;;;;;;;6.07;5.13;;;;;;;-0.95;88.79;98105.09;5051794;28;20755;-74
2023/01/18 01:50:31;;;;;;;5.63;5.13;;;;;;;-0.95;88.81;98123.00;5053628;28;20269;-74
2023/01/18 01:52:58;;;;;;;5.60;5.07;;;;;;;-0.98;87.86;98140.13;5053451;28;20225;-74
2023/01/18 01:55:28;;;;;;;10.00;4.80;;;;;;;-0.94;87.53;98146.91;5053027;28;20209;-74
2023/01/18 01:58:00;;;;;;;5.07;4.37;;;;;;;-0.95;87.44;98169.09;5053013;28;20229;-74
2023/01/18 02:00:27;;;;;;;4.83;3.90;;;;;;;-0.92;87.05;98173.34;5053331;28;20206;-74
2023/01/18 02:02:57;;;;;;;5.83;4.43;;;;;;;-0.83;86.61;98186.06;5051442;28;20237;-74
2023/01/18 02:05:25;;;;;;;5.47;3.80;;;;;;;-0.85;87.33;98193.75;5039437;28;20234;-74
2023/01/18 02:07:53;;;;;;;5.87;4.47;;;;;;;-0.75;86.80;98199.66;5051295;28;20271;-74
2023/01/18 02:10:20;;;;;;;5.43;3.70;;;;;;;-0.75;87.06;98206.44;5051499;28;20205;-74
2023/01/18 02:12:50;;;;;;;5.20;3.50;;;;;;;-0.88;86.31;98216.81;5051320;28;20207;-74
2023/01/18 02:15:17;;;;;;;5.90;3.30;;;;;;;-0.95;87.43;98216.88;5051712;28;20205;-74
2023/01/18 02:17:57;;;;;;;3.50;2.87;;;;;;;-0.93;87.86;98197.22;5055325;28;20568;-74
2023/01/18 02:20:52;;;;;;;6.67;3.83;;;;;;;-1.00;88.39;98178.53;5055381;28;20227;-74
2023/01/18 02:23:35;;;;;;;9.50;4.00;;;;;;;-0.92;88.55;98163.09;5055312;28;20206;-74
2023/01/18 02:26:26;;;;;;;4.53;3.33;;;;;;;-0.86;88.58;98161.31;5041319;28;20202;-74
2023/01/18 02:29:00;;;;;;;5.23;4.10;;;;;;;-0.91;88.04;98173.34;5055046;28;20234;-74
2023/01/18 02:31:31;;;;;;;3.97;3.10;;;;;;;-0.91;88.46;98173.34;5052240;28;20207;-74
2023/01/18 02:34:05;;;;;;;5.10;3.20;;;;;;;-0.97;88.12;98170.84;5039783;28;20240;-74
2023/01/18 02:36:45;;;;;;;4.20;3.80;;;;;;;-1.20;89.16;98171.88;5055163;28;20213;-74
2023/01/18 02:39:30;;;;;;;4.97;4.07;;;;;;;-1.34;90.04;98152.38;5055024;28;20225;-74
2023/01/18 02:47:32;;;;;;;7.30;5.00;;;;;;;-1.58;92.03;98099.72;5045945;28;20332;-74
2023/01/18 02:49:59;;;;;;;6.00;5.10;;;;;;;-1.69;92.24;98084.44;5034380;28;20256;-74
2023/01/18 02:52:40;;;;;;;5.63;4.63;;;;;;;-1.73;92.75;98063.16;5042878;28;20261;-74
2023/01/18 02:55:13;;;;;;;5.90;5.13;;;;;;;-1.82;93.44;98046.19;5014941;28;20269;-74
2023/01/18 02:57:40;;;;;;;7.63;5.27;;;;;;;-1.88;94.01;98038.56;5015115;28;20227;-74
2023/01/18 03:00:11;;;;;;;7.60;5.07;;;;;;;-1.94;94.62;98009.63;5014892;28;20342;-74
2023/01/18 03:02:40;;;;;;;6.43;5.40;;;;;;;-1.92;94.95;98006.22;5014938;28;20681;-75
2023/01/18 03:05:08;;;;;;;8.03;6.27;;;;;;;-1.80;94.90;97987.38;5015000;28;20211;-74
2023/01/18 03:07:40;;;;;;;8.77;6.10;;;;;;;-1.74;94.53;97997.53;5035614;28;20288;-74
2023/01/18 03:10:10;;;;;;;6.87;6.17;;;;;;;-1.62;94.65;97989.75;5047615;28;20202;-74
2023/01/18 03:12:48;;;;;;;6.60;5.90;;;;;;;-1.56;94.20;98000.78;5054730;28;20205;-75
2023/01/18 03:15:21;;;;;;;8.57;6.10;;;;;;;-1.44;93.97;98013.44;5054392;28;20263;-75
2023/01/18 03:17:51;;;;;;;8.43;6.00;;;;;;;-1.33;93.81;98023.56;5052980;28;20225;-74
2023/01/18 03:20:24;;;;;;;7.80;5.63;;;;;;;-1.38;93.16;98033.84;5045409;28;20235;-75
2023/01/18 03:25:40;;;;;;;6.50;5.87;;;;;;;-1.23;92.35;98059.31;5051909;28;20201;-74
2023/01/18 03:33:48;;;;;;;8.07;5.17;;;;;;;-1.08;90.17;98129.94;5034160;28;20237;-75
2023/01/18 03:36:21;;;;;;;6.10;4.50;;;;;;;-1.07;88.52;98166.63;5034097;28;20211;-75
2023/01/18 03:38:52;;;;;;;5.87;4.10;;;;;;;-1.10;87.84;98199.97;5036036;28;20226;-75
2023/01/18 03:41:21;;;;;;;3.63;3.33;;;;;;;-1.16;86.95;98236.69;5045131;28;20193;-75
2023/01/18 03:43:50;;;;;;;4.47;3.83;;;;;;;-1.13;87.10;98253.72;5053874;28;20255;-75
2023/01/18 03:46:21;;;;;;;5.07;3.70;;;;;;;-1.09;87.08;98268.19;5053759;28;20232;-74
2023/01/18 03:48:47;;;;;;;6.83;4.23;;;;;;;-1.13;87.39;98264.84;5053692;28;20788;-74
2023/01/18 03:51:19;;;;;;;4.37;3.97;;;;;;;-1.07;87.42;98272.47;5049208;28;20248;-75
2023/01/18 03:53:56;;;;;;;4.83;4.37;;;;;;;-1.09;87.96;98270.75;5045148;28;20267;-74
2023/01/18 03:56:28;;;;;;;5.67;4.47;;;;;;;-1.09;87.38;98265.63;5053496;28;20667;-74
2023/01/18 03:59:00;;;;;;;9.03;4.63;;;;;;;-1.09;87.56;98269.06;5044712;28;20277;-75
2023/01/18 04:01:28;;;;;;;8.53;4.90;;;;;;;-1.04;87.86;98271.59;5044726;28;20207;-74
2023/01/18 04:03:54;;;;;;;6.83;4.00;;;;;;;-1.01;87.58;98282.66;5053513;28;20668;-74
2023/01/18 04:06:22;;;;;;;4.83;4.20;;;;;;;-0.94;87.33;98286.00;5053380;28;20202;-74
2023/01/18 04:08:48;;;;;;;5.90;3.80;;;;;;;-0.97;87.01;98296.28;5053539;28;20225;-74
2023/01/18 04:11:15;;;;;;;4.50;3.67;;;;;;;-0.93;86.97;98308.22;5053256;28;20269;-74
2023/01/18 04:13:41;;;;;;;5.33;3.60;;;;;;;-0.92;86.83;98315.03;5053227;28;20227;-75
2023/01/18 04:16:08;;;;;;;4.23;3.83;;;;;;;-0.95;86.93;98327.88;5053170;28;20263;-74
2023/01/18 04:18:36;;;;;;;5.23;3.87;;;;;;;-0.98;87.05;98325.31;5041835;28;20797;-75
2023/01/18 04:21:02;;;;;;;5.13;4.10;;;;;;;-0.91;87.54;98310.75;5052739;28;20247;-74
2023/01/18 04:23:28;;;;;;;5.97;4.50;;;;;;;-0.88;87.85;98298.78;5053155;28;20206;-74
2023/01/18 04:25:55;;;;;;;5.77;4.00;;;;;;;-0.88;87.79;98298.78;5053610;28;20264;-74
2023/01/18 04:28:24;;;;;;;4.73;4.23;;;;;;;-0.81;87.71;98292.75;5053092;28;20237;-74
2023/01/18 04:30:52;;;;;;;5.30;4.07;;;;;;;-0.78;87.74;98299.56;5047018;28;20659;-74
2023/01/18 04:33:19;;;;;;;4.00;3.60;;;;;;;-0.76;87.55;98300.38;5044289;28;20204;-75
2023/01/18 04:35:47;;;;;;;3.90;3.33;;;;;;;-0.74;87.25;98302.94;5051889;28;20326;-75
2023/01/18 04:38:13;;;;;;;4.20;3.20;;;;;;;-0.68;87.72;98305.44;5051805;28;20848;-74
2023/01/18 04:40:40;;;;;;;5.83;3.97;;;;;;;-0.70;87.82;98319.97;5053034;28;20212;-74
2023/01/18 04:43:06;;;;;;;4.23;3.33;;;;;;;-0.71;86.42;98338.78;5052645;28;20252;-74
2023/01/18 04:45:33;;;;;;;5.53;3.67;;;;;;;-0.74;85.51;98369.53;5052672;28;20197;-74
2023/01/18 04:47:59;;;;;;;3.73;3.33;;;;;;;-0.83;84.92;98385.84;5044685;28;20301;-74
2023/01/18 04:50:26;;;;;;;4.13;3.37;;;;;;;-0.91;84.81;98398.69;5048731;28;20615;-74
2023/01/18 04:52:53;;;;;;;4.97;3.67;;;;;;;-0.96;84.36;98415.78;5052550;28;20206;-74
2023/01/18 04:55:20;;;;;;;7.17;3.43;;;;;;;-1.02;83.88;98426.88;5052609;28;20229;-74
2023/01/18 04:57:46;;;;;;;4.80;3.83;;;;;;;-1.05;85.10;98431.16;5052426;28;20718;-74
2023/01/18 05:00:14;;;;;;;3.70;3.40;;;;;;;-1.13;85.05;98431.22;5052032;28;20201;-74
2023/01/18 05:02:41;;;;;;;5.20;3.60;;;;;;;-1.11;85.68;98421.84;5045686;28;20237;-74
2023/01/18 05:05:08;;;;;;;4.80;3.53;;;;;;;-1.14;85.82;98416.72;5044007;28;20259;-74
2023/01/18 05:07:35;;;;;;;5.20;3.27;;;;;;;-1.13;85.79;98407.31;5052123;28;20675;-74
2023/01/18 05:10:03;;;;;;;4.87;3.37;;;;;;;-1.04;85.96;98402.16;5051927;28;20255;-74
2023/01/18 05:12:30;;;;;;;7.27;3.90;;;;;;;-1.03;86.81;98399.59;5052250;28;20292;-74
2023/01/18 05:14:56;;;;;;;4.57;3.43;;;;;;;-0.95;86.26;98383.31;5051993;28;20291;-74
2023/01/18 05:17:26;;;;;;;4.37;3.33;;;;;;;-0.89;86.60;98380.72;5052393;28;20210;-74
2023/01/18 05:19:53;;;;;;;5.43;3.63;;;;;;;-0.85;86.57;98382.44;5041537;28;20213;-74
2023/01/18 05:22:19;;;;;;;7.30;3.70;;;;;;;-0.85;86.55;98383.28;5047145;28;20206;-74
2023/01/18 05:24:46;;;;;;;7.17;3.07;;;;;;;-0.77;86.14;98393.47;5051991;28;20205;-74
2023/01/18 05:27:14;;;;;;;4.30;3.40;;;;;;;-0.77;86.32;98395.16;5051959;28;20205;-74
2023/01/18 05:29:40;;;;;;;3.87;3.33;;;;;;;-0.77;86.39;98402.84;5051833;28;20283;-74
2023/01/18 05:32:06;;;;;;;5.00;3.13;;;;;;;-0.76;86.20;98402.00;5051510;28;20239;-74
2023/01/18 05:34:33;;;;;;;5.30;3.37;;;;;;;-0.76;85.96;98404.56;5051733;28;20221;-74
2023/01/18 05:36:59;;;;;;;6.70;3.47;;;;;;;-0.71;85.81;98413.09;5051763;28;20679;-74
2023/01/18 05:39:26;;;;;;;3.83;3.10;;;;;;;-0.75;85.07;98424.19;5046618;28;20222;-74
2023/01/18 05:41:52;;;;;;;4.80;2.77;;;;;;;-0.81;85.55;98438.75;5043131;28;20257;-73
2023/01/18 05:44:20;;;;;;;5.70;3.40;;;;;;;-0.73;84.82;98443.81;5051639;28;20205;-74
2023/01/18 05:46:46;;;;;;;4.10;3.20;;;;;;;-0.73;85.59;98437.81;5031844;28;20260;-74
2023/01/18 05:49:13;;;;;;;2.97;2.67;;;;;;;-0.72;85.46;98448.06;5020773;28;20223;-74
2023/01/18 05:51:39;;;;;;;3.07;2.77;;;;;;;-0.68;85.09;98449.75;5021879;28;20672;-73
2023/01/18 05:54:06;;;;;;;6.10;3.37;;;;;;;-0.66;85.15;98455.72;5023678;28;20249;-74
2023/01/18 05:56:32;;;;;;;4.63;4.23;;;;;;;-0.67;84.68;98469.41;5026578;28;20207;-74
2023/01/18 05:58:59;;;;;;;4.23;3.30;;;;;;;-0.81;84.52;98489.97;5020058;28;20224;-74
2023/01/18 06:01:33;;;;;;;3.90;3.17;;;;;;;-0.82;84.12;98484.84;5021536;28;20253;-74
2023/01/18 06:04:00;;;;;;;4.63;3.23;;;;;;;-0.89;83.89;98498.53;5019594;28;20209;-74
2023/01/18 06:06:26;;;;;;;6.60;3.37;;;;;;;-1.03;84.08;98501.13;5021784;28;20233;-74
2023/01/18 06:08:54;;;;;;;3.87;3.40;;;;;;;-1.08;84.65;98490.94;5022713;28;20226;-74
2023/01/18 06:11:20;;;;;;;4.87;3.50;;;;;;;-1.10;85.43;98482.41;5025129;28;20205;-74
2023/01/18 06:13:46;;;;;;;4.93;3.60;;;;;;;-1.06;85.96;98460.22;5024494;28;20203;-74
2023/01/18 06:16:13;;;;;;;5.00;3.87;;;;;;;-0.98;86.00;98447.38;5021046;28;20214;-73
2023/01/18 06:18:41;;;;;;;10.03;3.87;;;;;;;-0.91;86.46;98442.22;5022171;28;20238;-74
2023/01/18 06:21:09;;;;;;;4.80;4.30;;;;;;;-1.00;85.97;98449.94;5020267;28;20209;-74
2023/01/18 06:23:36;;;;;;;6.37;4.23;;;;;;;-1.07;86.36;98444.00;5020573;28;20203;-74
2023/01/18 06:26:02;;;;;;;8.90;5.37;;;;;;;-1.11;86.62;98437.19;5025144;28;20281;-74
2023/01/18 06:28:28;;;;;;;4.80;4.30;;;;;;;-1.04;86.95;98428.59;5026358;28;20277;-74
2023/01/18 06:30:55;;;;;;;7.40;4.40;;;;;;;-0.96;87.10;98415.78;5020309;28;20200;-74
2023/01/18 06:33:22;;;;;;;4.77;3.67;;;;;;;-0.89;86.96;98421.69;5022092;28;20253;-74
2023/01/18 06:35:50;;;;;;;4.80;4.30;;;;;;;-0.86;85.36;98440.47;5022075;28;20214;-75
2023/01/18 06:38:17;;;;;;;4.77;4.20;;;;;;;-0.84;84.18;98478.88;5021100;28;20631;-74
2023/01/18 06:40:43;;;;;;;6.20;5.00;;;;;;;-0.97;83.32;98520.75;5028171;28;20217;-74
2023/01/18 06:43:12;;;;;;;5.50;4.97;;;;;;;-1.00;83.20;98547.22;5021264;28;20733;-74
2023/01/18 06:45:39;;;;;;;6.70;4.80;;;;;;;-1.04;83.51;98560.91;5022415;28;20201;-74
2023/01/18 06:48:06;;;;;;;7.53;4.60;;;;;;;-1.06;82.71;98573.69;5019983;28;20277;-75
2023/01/18 06:50:32;;;;;;;6.00;4.27;;;;;;;-1.05;82.43;98597.59;5020559;28;20206;-74
2023/01/18 06:53:00;;;;;;;6.00;5.33;;;;;;;-1.18;83.65;98591.66;5021583;28;20195;-74
2023/01/18 06:55:27;;;;;;;7.60;5.87;;;;;;;-1.17;83.36;98589.94;5023647;28;21001;-74
2023/01/18 06:57:53;;;;;;;7.10;5.60;;;;;;;-1.25;84.14;98584.81;5026063;28;20707;-74
2023/01/18 07:00:21;;;;;;;9.00;5.27;;;;;;;-1.27;83.93;98579.72;5021691;28;20210;-74
2023/01/18 07:02:47;;;;;;;7.13;4.83;;;;;;;-1.18;84.51;98572.88;5022522;28;20202;-75
2023/01/18 07:05:14;;;;;;;6.83;4.60;;;;;;;-1.14;84.22;98578.00;5024139;28;20194;-75
2023/01/18 07:07:40;;;;;;;6.73;4.50;;;;;;;-1.15;84.27;98572.88;5024854;28;20637;-75
2023/01/18 07:10:09;;;;;;;7.47;4.80;;;;;;;-1.13;84.29;98576.28;5023434;28;20342;-75
2023/01/18 07:12:36;;;;;;;4.93;4.20;;;;;;;-1.10;84.19;98566.88;5032317;28;20617;-75
2023/01/18 07:15:04;;;;;;;6.77;5.10;;;;;;;-1.12;84.49;98575.44;5025847;28;20214;-74
2023/01/18 07:17:31;;;;;;;6.07;4.80;;;;;;;-1.17;84.55;98574.56;5023864;28;20210;-74
2023/01/18 07:19:57;;;;;;;5.83;5.30;;;;;;;-1.17;84.65;98574.56;5023078;28;20433;-74
2023/01/18 07:22:24;;;;;;;8.63;5.30;;;;;;;-1.15;84.99;98568.63;5025572;28;20199;-74
2023/01/18 07:24:50;;;;;;;5.07;4.17;;;;;;;-1.10;85.12;98566.88;5024109;28;20244;-74
2023/01/18 07:27:18;;;;;;;7.40;4.00;;;;;;;-1.07;84.97;98568.56;5024450;28;20203;-74
2023/01/18 07:29:44;;;;;;;4.73;4.20;;;;;;;-0.96;85.09;98564.28;5022735;28;20198;-74
2023/01/18 07:32:10;;;;;;;5.00;4.20;;;;;;;-0.90;85.46;98568.53;5023916;28;20206;-74
2023/01/18 07:34:37;;;;;;;4.80;4.23;;;;;;;-0.86;83.34;98594.13;5024091;28;20203;-74
2023/01/18 07:37:03;;;;;;;5.73;4.67;;;;;;;-0.87;82.63;98633.44;5017221;28;20211;-74
2023/01/18 07:39:30;;;;;;;6.63;5.83;;;;;;;-0.93;82.54;98659.06;5014171;28;20227;-75
2023/01/18 07:41:56;;;;;;;8.47;6.93;;;;;;;-0.91;82.46;98665.03;5040559;28;20203;-81
2023/01/18 07:44:25;;;;;;;7.57;6.50;;;;;;;-0.99;82.37;98671.88;5044769;28;20201;-83
2023/01/18 07:46:51;;;;;;;7.13;6.20;;;;;;;-0.95;82.97;98672.69;5051066;28;20201;-83
2023/01/18 07:49:18;;;;;;;10.17;5.67;;;;;;;-1.32;83.65;98681.25;5059132;28;20729;-86
2023/01/18 07:51:44;;;;;;;8.07;5.63;;;;;;;-1.96;85.95;98666.66;5058303;28;20541;-82
2023/01/18 07:54:11;;;;;;;7.30;6.23;;;;;;;-2.78;89.83;98603.31;5057656;28;20209;-78
2023/01/18 07:56:37;;;;;;;8.40;6.77;;;;;;;-2.95;91.96;98504.56;5056860;28;20225;-81
2023/01/18 07:59:04;;;;;;;12.30;7.17;;;;;;;-3.04;93.62;98428.78;5056310;28;20325;-80
2023/01/18 08:01:32;;;;;;;8.17;7.37;;;;;;;-3.01;94.38;98370.13;5049488;28;20206;-79
2023/01/18 08:03:58;;;;;;;10.50;7.23;;;;;;;-2.99;94.94;98334.41;5056852;28;20262;-82
2023/01/18 08:06:26;;;;;;;8.17;7.33;;;;;;;-2.94;95.38;98313.97;5059139;28;20231;-83
2023/01/18 08:08:54;;;;;;;14.10;7.50;;;;;;;-2.81;95.45;98295.25;5058590;28;20225;-83
2023/01/18 08:11:21;;;;;;;7.90;7.20;;;;;;;-2.67;95.46;98290.16;5057393;28;20210;-82
2023/01/18 08:13:49;;;;;;;10.80;7.97;;;;;;;-2.52;95.14;98291.81;5056171;28;20209;-81
2023/01/18 08:16:16;;;;;;;12.23;6.77;;;;;;;-2.34;94.74;98293.50;5048523;28;20690;-83
2023/01/18 08:18:44;;;;;;;22.30;16.87;;;;;;;-2.38;94.51;98307.13;5049081;28;20328;-82
2023/01/18 08:21:11;;;;;;;99.97;46.47;;;;;;;-2.27;94.50;98300.31;5050606;28;20206;-83
2023/01/18 08:23:38;;;;;;;67.07;36.87;;;;;;;-2.13;94.37;98300.28;5046605;28;20268;-82
2023/01/18 08:26:06;;;;;;;38.57;22.80;;;;;;;-1.98;94.42;98307.03;5057104;28;20664;-81
2023/01/18 08:28:33;;;;;;;37.53;24.30;;;;;;;-1.76;94.13;98308.69;5057525;28;20303;-83
2023/01/18 08:31:08;;;;;;;13.87;12.50;;;;;;;-1.60;92.87;98338.44;5053303;28;20265;-83
2023/01/18 08:33:40;;;;;;;15.43;10.57;;;;;;;-1.46;92.52;98350.31;5046761;28;20216;-82
2023/01/18 08:36:11;;;;;;;10.23;8.97;;;;;;;-1.31;92.24;98368.19;5057350;28;20229;-83
2023/01/18 08:38:37;;;;;;;8.27;7.20;;;;;;;-1.24;91.70;98374.09;5057371;28;20252;-82
2023/01/18 08:41:04;;;;;;;8.17;6.37;;;;;;;-1.12;91.52;98393.66;5056876;28;20209;-82
2023/01/18 08:43:31;;;;;;;7.50;6.67;;;;;;;-1.08;90.86;98423.53;5057155;28;20666;-83
2023/01/18 08:45:58;;;;;;;7.67;6.50;;;;;;;-1.04;90.90;98443.97;5058212;28;20202;-83
2023/01/18 08:48:24;;;;;;;12.83;6.93;;;;;;;-0.93;90.77;98451.63;5054569;28;20310;-83
2023/01/18 08:50:51;;;;;;;5.53;4.93;;;;;;;-0.86;90.24;98462.66;5050575;28;20207;-84
2023/01/18 08:53:18;;;;;;;6.63;5.40;;;;;;;-0.84;89.69;98482.28;5058811;28;20210;-82
2023/01/18 08:55:45;;;;;;;6.37;5.77;;;;;;;-0.71;89.94;98498.47;5057892;28;20230;-82
2023/01/18 08:58:11;;;;;;;6.57;5.93;;;;;;;-0.69;86.72;98527.47;5057849;28;20349;-82
2023/01/18 09:00:38;;;;;;;7.63;6.17;;;;;;;-0.53;87.04;98570.97;5058479;28;20259;-82
2023/01/18 09:03:05;;;;;;;5.90;5.30;;;;;;;-0.43;86.97;98588.84;5044162;28;20634;-78
2023/01/18 09:05:33;;;;;;;7.60;5.43;;;;;;;-0.28;87.20;98599.88;5047093;28;20191;-79
2023/01/18 09:08:00;;;;;;;6.73;5.60;;;;;;;-0.15;86.90;98614.34;5036216;28;20229;-79
2023/01/18 09:10:28;;;;;;;6.57;5.10;;;;;;;-0.08;86.15;98626.28;5048811;28;20211;-79
2023/01/18 09:12:54;;;;;;;8.67;5.77;;;;;;;0.02;86.41;98641.63;5040302;28;20205;-79
2023/01/18 09:15:21;;;;;;;8.40;6.77;;;;;;;-0.10;84.11;98674.19;5040165;28;20285;-78
2023/01/18 09:17:47;;;;;;;10.10;7.97;;;;;;;-0.08;83.58;98712.59;5040745;28;20226;-80
2023/01/18 09:20:14;;;;;;;10.20;9.20;;;;;;;0.06;83.58;98727.94;5044294;28;20218;-79
2023/01/18 09:22:41;;;;;;;9.60;7.33;;;;;;;0.13;84.58;98737.34;5053323;28;20740;-80
2023/01/18 09:25:09;;;;;;;7.70;6.33;;;;;;;0.13;83.65;98748.44;5055544;28;20202;-80
2023/01/18 09:27:37;;;;;;;8.70;6.53;;;;;;;0.25;84.48;98751.81;5059038;28;20260;-81
2023/01/18 09:30:04;;;;;;;6.43;5.87;;;;;;;0.29;84.10;98749.22;5038880;28;20199;-79
2023/01/18 09:32:31;;;;;;;8.43;5.87;;;;;;;0.22;82.29;98774.91;5032960;28;20207;-79
2023/01/18 09:34:57;;;;;;;9.83;6.57;;;;;;;0.28;81.25;98829.63;5030889;28;20660;-80
2023/01/18 09:37:23;;;;;;;6.53;5.93;;;;;;;0.46;81.19;98843.28;5029773;28;20215;-77
2023/01/18 09:39:50;;;;;;;6.87;6.17;;;;;;;0.42;80.54;98870.66;5024997;28;20264;-79
2023/01/18 09:42:20;;;;;;;6.43;5.27;;;;;;;0.51;80.46;98890.28;5027052;28;20263;-79
2023/01/18 09:44:51;;;;;;;7.67;6.00;;;;;;;0.49;80.60;98889.44;5042779;28;20202;-79
2023/01/18 09:47:21;;;;;;;7.47;5.83;;;;;;;0.41;80.68;98898.88;5052025;28;20601;-82
2023/01/18 09:49:54;;;;;;;7.27;6.57;;;;;;;0.44;81.12;98906.56;5034697;28;20209;-81
2023/01/18 09:52:36;;;;;;;9.93;7.13;;;;;;;0.45;81.41;98898.03;5036043;28;20211;-81
2023/01/18 09:55:12;;;;;;;7.17;6.57;;;;;;;0.49;82.03;98890.28;5037342;28;20225;-81
2023/01/18 09:57:49;;;;;;;7.40;6.67;;;;;;;0.57;82.45;98874.88;5036331;28;20230;-82
2023/01/18 10:00:21;;;;;;;7.70;6.47;;;;;;;0.59;82.62;98850.03;5040565;28;20205;-82
2023/01/18 10:02:52;;;;;;;9.73;7.53;;;;;;;0.56;82.36;98848.34;5042930;28;20568;-82
2023/01/18 10:05:22;;;;;;;11.93;7.50;;;;;;;0.54;82.57;98855.19;5034401;28;20740;-83
2023/01/18 10:08:02;;;;;;;8.23;7.20;;;;;;;0.33;80.91;98884.34;5033798;28;20284;-84
2023/01/18 10:10:33;;;;;;;8.40;7.60;;;;;;;0.41;80.86;98889.47;5033401;28;20203;-82
2023/01/18 10:13:15;;;;;;;10.47;7.40;;;;;;;0.38;81.62;98890.34;5034453;28;20240;-83
2023/01/18 10:15:43;;;;;;;8.30;7.43;;;;;;;0.31;82.32;98887.78;5045620;28;20225;-82
2023/01/18 10:18:10;;;;;;;8.93;7.00;;;;;;;0.51;82.82;98862.91;5054493;28;20292;-81
2023/01/18 10:20:45;;;;;;;9.07;7.80;;;;;;;0.44;82.41;98862.94;5053241;28;20208;-81
2023/01/18 10:23:17;;;;;;;10.40;7.63;;;;;;;0.49;81.86;98845.81;5042943;28;20197;-79
2023/01/18 10:25:51;;;;;;;7.60;6.80;;;;;;;0.55;82.59;98854.31;5053525;28;20548;-79
2023/01/18 10:28:32;;;;;;;10.43;7.73;;;;;;;0.57;82.91;98846.63;5054419;28;20225;-80
2023/01/18 10:31:14;;;;;;;9.17;8.17;;;;;;;0.61;82.67;98850.03;5053218;28;20258;-80
2023/01/18 10:33:44;;;;;;;7.50;6.60;;;;;;;0.63;81.81;98850.88;5043645;28;20301;-80
2023/01/18 10:36:15;;;;;;;7.83;7.03;;;;;;;0.66;82.59;98854.28;5047374;28;20228;-79
2023/01/18 10:38:43;;;;;;;8.70;7.23;;;;;;;0.69;81.79;98859.41;5057114;28;20271;-80
2023/01/18 10:41:18;;;;;;;7.83;7.03;;;;;;;0.91;82.11;98854.16;5056391;28;20817;-81
2023/01/18 10:43:45;;;;;;;9.00;8.10;;;;;;;1.09;81.61;98853.19;5057291;28;20206;-78
2023/01/18 10:46:18;;;;;;;9.23;6.80;;;;;;;1.18;81.66;98866.84;5056708;28;20202;-77
2023/01/18 10:48:46;;;;;;;8.17;7.37;;;;;;;1.19;81.50;98870.28;5048282;28;20235;-78
2023/01/18 10:51:25;;;;;;;8.57;7.73;;;;;;;1.37;81.18;98877.00;5048253;28;20248;-79
2023/01/18 10:53:52;;;;;;;9.57;7.23;;;;;;;1.26;81.00;98894.22;5057467;28;20214;-80
2023/01/18 10:56:23;;;;;;;9.47;7.27;;;;;;;1.22;79.90;98910.53;5058101;28;20230;-81
2023/01/18 10:58:54;;;;;;;8.30;7.50;;;;;;;1.21;80.19;98932.81;5058871;28;20241;-80
2023/01/18 11:01:24;;;;;;;10.77;7.87;;;;;;;1.30;79.94;98937.88;5059508;28;20628;-80
2023/01/18 11:03:54;;;;;;;8.83;8.00;;;;;;;1.14;79.55;98939.69;5059386;28;20209;-80
2023/01/18 11:06:21;;;;;;;12.13;8.43;;;;;;;1.19;80.23;98945.66;5043060;28;20206;-78
2023/01/18 11:08:48;;;;;;;10.53;8.70;;;;;;;1.17;80.09;98949.94;5039225;28;20222;-83
2023/01/18 11:12:32;;;;;;;9.77;8.67;;;;;;;1.35;80.53;98956.72;5037905;28;20202;-82
2023/01/18 11:14:27;;;;;;;10.77;9.67;;;;;;;1.16;79.58;98960.22;5035942;28;20587;-82
2023/01/18 11:17:02;;;;;;;15.37;9.23;;;;;;;1.26;80.26;98956.75;5038338;28;20226;-80
2023/01/18 11:19:29;;;;;;;10.00;9.10;;;;;;;1.41;81.09;98944.66;5044825;28;20730;-79
2023/01/18 11:21:55;;;;;;;14.90;10.17;;;;;;;1.49;80.83;98928.34;5044440;28;20213;-80
2023/01/18 11:24:26;;;;;;;12.00;9.30;;;;;;;1.13;80.67;98944.81;5051892;28;20263;-77
2023/01/18 11:26:58;;;;;;;11.30;8.80;;;;;;;1.32;81.05;98923.28;5054380;28;20671;-79
2023/01/18 11:29:29;;;;;;;10.00;9.07;;;;;;;1.48;81.22;98908.63;5056357;28;20316;-78
2023/01/18 11:31:55;;;;;;;13.53;9.27;;;;;;;1.51;79.88;98911.19;5056675;28;20664;-78
2023/01/18 11:34:28;;;;;;;11.20;9.37;;;;;;;1.62;79.97;98923.94;5055397;28;20640;-77
2023/01/18 11:36:56;;;;;;;11.23;9.40;;;;;;;1.74;80.34;98928.16;5055272;28;20253;-78
2023/01/18 11:39:32;;;;;;;17.43;12.37;;;;;;;1.78;80.71;98932.41;5055452;28;20230;-79
2023/01/18 11:42:20;;;;;;;12.43;11.13;;;;;;;1.86;79.68;98938.34;5056230;28;20264;-78
2023/01/18 11:44:55;;;;;;;14.70;9.47;;;;;;;1.85;79.34;98952.09;5056058;28;20206;-78
2023/01/18 11:47:28;;;;;;;11.07;8.30;;;;;;;1.91;79.06;98969.19;5056017;28;20213;-78
2023/01/18 11:50:01;;;;;;;8.60;7.80;;;;;;;1.97;78.53;98982.00;5054220;28;20265;-78
2023/01/18 11:52:41;;;;;;;8.73;7.83;;;;;;;1.88;77.74;99010.38;5044142;28;20207;-78
2023/01/18 11:55:19;;;;;;;11.10;9.27;;;;;;;1.75;77.42;99025.06;5016489;28;20208;-79
2023/01/18 11:57:45;;;;;;;12.63;8.50;;;;;;;1.86;77.69;99030.97;5016781;28;20230;-78
2023/01/18 12:00:15;;;;;;;10.93;9.33;;;;;;;1.78;77.86;99031.03;5016160;28;20239;-79
2023/01/18 12:03:02;;;;;;;9.30;7.77;;;;;;;1.85;77.96;99044.72;5016525;28;20265;-79
2023/01/18 12:05:37;;;;;;;9.83;8.17;;;;;;;1.96;78.44;99042.06;5016635;28;20204;-79
2023/01/18 12:08:38;;;;;;;9.57;8.57;;;;;;;1.85;76.41;99046.44;5016314;28;20231;-78
2023/01/18 12:11:29;;;;;;;9.17;8.20;;;;;;;1.63;76.62;99076.56;5015676;28;20258;-79
2023/01/18 12:14:02;;;;;;;10.30;9.20;;;;;;;1.86;76.72;99084.16;5016686;28;20212;-79
2023/01/18 12:16:45;;;;;;;11.37;9.27;;;;;;;2.05;76.66;99084.91;5016443;28;20417;-80
2023/01/18 12:19:36;;;;;;;9.13;8.23;;;;;;;2.07;76.86;99084.03;5015961;28;20301;-79